Time;durP1;ratioP1;P1;durP2;ratioP2;P2;SDS_P1;SDS_P2;PMS_P1;PMS_P2;Temp;Humidity;BMP_temperature;BMP_pressure;BME280_temperature;BME280_humidity;BME280_pressure;Samples;Min_cycle;Max_cycle;Signal;HPM_P1;HPM_P2
2022/08/10 00:02:37;;;;;;;5.80;2.47;;;;;;;17.30;100.00;100140.11;1715103;83;21416;-65
2022/08/10 00:05:05;;;;;;;5.85;2.50;;;;;;;17.35;100.00;100144.70;1716798;82;20998;-65
2022/08/10 00:07:31;;;;;;;5.35;2.55;;;;;;;17.34;100.00;100146.63;1693185;83;20992;-64
2022/08/10 00:09:58;;;;;;;6.08;2.55;;;;;;;17.31;100.00;100149.17;1722941;83;21505;-65
2022/08/10 00:12:24;;;;;;;;;;;;;;;17.28;100.00;100149.23;1722745;83;21090;-65
2022/08/10 00:14:50;;;;;;;6.35;2.35;;;;;;;17.30;100.00;100147.54;1712388;82;20162;-65
2022/08/10 00:17:17;;;;;;;4.15;2.20;;;;;;;17.31;100.00;100147.24;1714263;83;20990;-65
2022/08/10 00:19:43;;;;;;;;;;;;;;;17.32;100.00;100143.34;1726294;83;21141;-64
2022/08/10 00:22:10;;;;;;;6.83;2.20;;;;;;;17.34;100.00;100149.37;1709680;83;20193;-65
2022/08/10 00:24:37;;;;;;;5.62;2.65;;;;;;;17.26;100.00;100141.02;1683308;84;21094;-66
2022/08/10 00:27:03;;;;;;;5.28;2.45;;;;;;;17.25;100.00;100140.78;1674725;85;21492;-66
2022/08/10 00:29:31;;;;;;;3.90;2.27;;;;;;;17.25;100.00;100131.15;1698418;84;21688;-66
2022/08/10 00:31:57;;;;;;;;;;;;;;;17.27;100.00;100131.09;1689898;84;21062;-65
2022/08/10 00:34:23;;;;;;;4.90;2.35;;;;;;;17.29;100.00;100133.52;1701838;84;20437;-65
2022/08/10 00:39:45;;;;;;;5.17;2.25;;;;;;;17.20;100.00;100125.73;1770335;79;23261;-68
2022/08/10 00:42:13;;;;;;;5.87;2.05;;;;;;;17.13;100.00;100134.41;1709402;83;21597;-68
2022/08/10 00:44:44;;;;;;;3.40;2.00;;;;;;;17.08;100.00;100136.42;1702599;83;21122;-67
2022/08/10 00:47:12;;;;;;;7.17;2.20;;;;;;;17.08;100.00;100135.86;1691732;83;21692;-68
2022/08/10 00:49:39;;;;;;;7.28;2.27;;;;;;;17.11;100.00;100142.13;1699417;83;21040;-68
2022/08/10 00:52:06;;;;;;;8.30;2.30;;;;;;;17.09;100.00;100136.13;1702697;83;21565;-68
2022/08/10 00:54:34;;;;;;;4.42;2.15;;;;;;;17.04;100.00;100144.47;1709317;82;21070;-67
2022/08/10 00:57:03;;;;;;;6.25;2.22;;;;;;;17.06;100.00;100142.80;1712129;83;21000;-68
2022/08/10 00:59:30;;;;;;;4.55;2.02;;;;;;;17.09;100.00;100138.06;1706223;81;21065;-68
2022/08/10 01:01:57;;;;;;;5.33;1.90;;;;;;;17.03;100.00;100140.11;1718615;83;21022;-67
2022/08/10 01:04:23;;;;;;;6.03;1.90;;;;;;;16.99;100.00;100144.58;1712405;83;21070;-67
2022/08/10 01:07:07;;;;;;;3.92;1.98;;;;;;;16.98;100.00;100139.38;1721591;81;21031;-66
2022/08/10 01:09:58;;;;;;;4.72;2.00;;;;;;;16.96;100.00;100138.31;1692844;83;21094;-67
2022/08/10 01:12:33;;;;;;;6.25;2.75;;;;;;;16.90;100.00;100143.08;1694871;83;21042;-68
2022/08/10 01:15:19;;;;;;;4.20;2.27;;;;;;;16.85;100.00;100146.50;1674013;82;20998;-68
2022/08/10 01:18:12;;;;;;;8.08;2.62;;;;;;;16.83;100.00;100150.09;1697346;83;21141;-67
2022/08/10 01:20:50;;;;;;;4.67;2.50;;;;;;;16.83;100.00;100148.72;1685607;83;21511;-68
2022/08/10 01:23:46;;;;;;;5.85;2.85;;;;;;;16.82;100.00;100148.48;1704881;83;21045;-67
2022/08/10 01:26:24;;;;;;;4.78;2.80;;;;;;;16.77;100.00;100148.56;1650102;86;21010;-68
2022/08/10 01:29:48;;;;;;;6.55;2.85;;;;;;;16.70;100.00;100148.96;1690896;82;21035;-67
2022/08/10 01:32:14;;;;;;;9.55;3.00;;;;;;;16.65;100.00;100142.75;1694135;84;20960;-67
2022/08/10 01:34:50;;;;;;;6.72;3.65;;;;;;;16.60;100.00;100144.20;1693687;82;21122;-67
2022/08/10 01:37:21;;;;;;;8.48;3.52;;;;;;;16.60;100.00;100135.95;1696986;82;21038;-67
2022/08/10 01:39:53;;;;;;;8.35;3.87;;;;;;;16.61;100.00;100134.29;1704581;82;21036;-67
2022/08/10 01:42:19;;;;;;;6.97;2.90;;;;;;;16.57;100.00;100140.69;1698188;82;21003;-67
2022/08/10 01:44:58;;;;;;;5.67;3.00;;;;;;;16.53;100.00;100156.92;1687120;84;21141;-67
2022/08/10 01:50:28;;;;;;;6.08;3.05;;;;;;;16.51;100.00;100154.23;1697795;82;21459;-67
2022/08/10 01:53:01;;;;;;;6.92;2.50;;;;;;;16.44;100.00;100148.55;1693042;82;21059;-68
2022/08/10 01:55:28;;;;;;;6.40;3.10;;;;;;;16.37;100.00;100149.48;1725212;82;21042;-68
2022/08/10 01:57:54;;;;;;;8.33;3.20;;;;;;;16.32;100.00;100149.59;1723039;82;21042;-68
2022/08/10 02:00:20;;;;;;;;;;;;;;;16.28;100.00;100137.56;1752841;82;21015;-67
2022/08/10 02:02:47;;;;;;;6.40;3.55;;;;;;;16.36;100.00;100136.89;1739786;80;20123;-67
2022/08/10 02:05:14;;;;;;;9.00;3.52;;;;;;;16.24;100.00;100135.15;1726574;82;21501;-68
2022/08/10 02:07:41;;;;;;;5.10;3.45;;;;;;;16.16;100.00;100133.62;1739318;82;21066;-68
2022/08/10 02:10:10;;;;;;;;;;;;;;;16.15;100.00;100134.77;1738298;80;21043;-69
2022/08/10 02:12:36;;;;;;;4.22;2.45;;;;;;;16.19;100.00;100137.96;1745034;80;20136;-67
2022/08/10 02:15:09;;;;;;;;;;;;;;;16.15;100.00;100132.84;1746650;80;21029;-70
2022/08/10 02:17:40;;;;;;;5.62;2.42;;;;;;;16.15;100.00;100132.84;1730873;82;20404;-69
2022/08/10 02:20:20;;;;;;;3.83;2.08;;;;;;;16.03;100.00;100139.88;1734476;80;20991;-68
2022/08/10 02:22:54;;;;;;;4.53;1.98;;;;;;;16.00;100.00;100136.36;1743463;80;21589;-68
2022/08/10 02:25:22;;;;;;;10.85;2.52;;;;;;;16.00;100.00;100134.99;1731969;80;20998;-68
2022/08/10 02:27:48;;;;;;;5.60;3.25;;;;;;;15.98;100.00;100142.14;1746496;80;21577;-68
2022/08/10 02:30:14;;;;;;;6.28;3.72;;;;;;;15.97;100.00;100138.33;1734272;82;20979;-68
2022/08/10 02:32:41;;;;;;;6.10;3.05;;;;;;;15.93;100.00;100144.42;1741629;80;21085;-69
2022/08/10 02:35:09;;;;;;;;;;;;;;;15.91;100.00;100140.32;1743503;80;20998;-68
2022/08/10 02:37:37;;;;;;;5.28;3.17;;;;;;;15.91;100.00;100135.66;1715402;82;20108;-68
2022/08/10 02:40:05;;;;;;;4.45;3.00;;;;;;;15.88;100.00;100146.41;1734274;81;21006;-67
2022/08/10 02:42:45;;;;;;;5.67;2.10;;;;;;;15.86;100.00;100145.91;1712203;82;21513;-67
2022/08/10 02:45:25;;;;;;;4.58;2.37;;;;;;;15.82;100.00;100145.69;1737175;81;21726;-67
2022/08/10 02:48:14;;;;;;;5.30;2.33;;;;;;;15.81;100.00;100148.70;1748351;81;21039;-67
2022/08/10 02:50:41;;;;;;;4.60;2.05;;;;;;;15.84;100.00;100149.48;1739717;80;21022;-67
2022/08/10 02:53:31;;;;;;;5.22;2.37;;;;;;;15.83;100.00;100152.81;1735593;80;21114;-68
2022/08/10 02:56:05;;;;;;;3.85;1.90;;;;;;;15.82;100.00;100145.69;1732821;81;21030;-68
2022/08/10 02:58:42;;;;;;;4.35;2.17;;;;;;;15.79;100.00;100148.20;1726060;81;21597;-67
2022/08/10 03:01:12;;;;;;;5.80;2.15;;;;;;;15.73;100.00;100146.06;1737884;81;21481;-68
2022/08/10 03:03:58;;;;;;;4.75;2.00;;;;;;;15.72;100.00;100151.87;1725864;82;21070;-68
2022/08/10 03:06:27;;;;;;;7.00;2.25;;;;;;;15.75;100.00;100154.02;1744053;82;20979;-68
2022/08/10 03:08:54;;;;;;;3.58;1.87;;;;;;;15.78;100.00;100154.80;1733735;81;21636;-66
2022/08/10 03:11:25;;;;;;;;;;;;;;;15.79;100.00;100152.32;1744596;81;20998;-67
2022/08/10 03:13:51;;;;;;;6.92;2.70;;;;;;;15.78;100.00;100141.89;1733996;81;20089;-68
2022/08/10 03:16:18;;;;;;;4.60;2.85;;;;;;;15.66;100.00;100141.50;1722260;82;20982;-67
2022/08/10 03:18:46;;;;;;;4.62;2.30;;;;;;;15.70;100.00;100141.72;1740870;81;21089;-67
2022/08/10 03:21:14;;;;;;;5.20;2.70;;;;;;;15.75;100.00;100149.90;1723836;81;21039;-67
2022/08/10 03:23:42;;;;;;;5.75;2.45;;;;;;;15.78;100.00;100157.54;1737583;81;21090;-69
2022/08/10 03:26:08;;;;;;;5.55;2.70;;;;;;;15.78;100.00;100156.98;1730072;82;20995;-67
2022/08/10 03:28:36;;;;;;;8.68;2.42;;;;;;;15.82;100.00;100150.35;1733517;81;21070;-66
2022/08/10 03:31:02;;;;;;;5.47;2.35;;;;;;;15.86;100.00;100143.16;1673622;84;21027;-69
2022/08/10 03:33:32;;;;;;;8.95;2.22;;;;;;;15.89;100.00;100141.19;1733172;81;21479;-70
2022/08/10 03:35:59;;;;;;;3.80;2.27;;;;;;;15.85;100.00;100144.27;1733134;81;20990;-67
2022/08/10 03:38:25;;;;;;;;;;;;;;;15.83;100.00;100151.44;1744847;82;21019;-69
2022/08/10 03:40:52;;;;;;;5.03;2.47;;;;;;;15.86;100.00;100154.14;1745561;80;20177;-68
2022/08/10 03:43:20;;;;;;;6.20;2.67;;;;;;;15.87;100.00;100151.66;1753772;80;21086;-68
2022/08/10 03:45:54;;;;;;;9.45;2.70;;;;;;;15.90;100.00;100155.19;1725331;82;20998;-66
2022/08/10 03:48:21;;;;;;;5.12;2.15;;;;;;;15.91;100.00;100149.94;1744199;82;21065;-67
2022/08/10 03:50:47;;;;;;;4.05;2.10;;;;;;;15.93;100.00;100156.78;1696879;82;20983;-67
2022/08/10 03:53:14;;;;;;;5.80;2.12;;;;;;;16.01;100.00;100159.42;1735386;82;21037;-66
2022/08/10 03:55:40;;;;;;;8.53;2.40;;;;;;;16.05;100.00;100156.31;1754890;82;20966;-66
2022/08/10 03:58:06;;;;;;;;;;;;;;;16.10;100.00;100148.56;1747862;81;21583;-67
2022/08/10 04:00:33;;;;;;;6.90;2.92;;;;;;;16.10;100.00;100148.56;1753249;82;20414;-67
2022/08/10 04:03:04;;;;;;;;;;;;;;;16.01;100.00;100143.50;1755656;82;21030;-67
2022/08/10 04:05:31;;;;;;;4.22;2.25;;;;;;;16.05;100.00;100149.45;1741163;82;20144;-67
2022/08/10 04:08:01;;;;;;;5.17;2.65;;;;;;;15.98;100.00;100145.47;1746541;80;21066;-66
2022/08/10 04:10:28;;;;;;;6.62;2.62;;;;;;;15.98;100.00;100144.89;1711056;82;21010;-67
2022/08/10 04:12:55;;;;;;;5.37;2.72;;;;;;;16.00;100.00;100145.97;1747763;81;21093;-67
2022/08/10 04:15:24;;;;;;;6.70;2.60;;;;;;;15.98;100.00;100156.45;1727698;82;21093;-67
2022/08/10 04:17:51;;;;;;;8.35;2.60;;;;;;;16.02;100.00;100164.33;1748446;81;21082;-66
2022/08/10 04:20:32;;;;;;;6.72;2.83;;;;;;;16.07;100.00;100152.73;1750227;82;21042;-67
2022/08/10 04:23:02;;;;;;;4.10;2.40;;;;;;;16.14;100.00;100155.09;1733202;82;20998;-67
2022/08/10 04:25:29;;;;;;;8.93;2.20;;;;;;;16.18;100.00;100156.13;1741334;82;20994;-67
2022/08/10 04:27:56;;;;;;;5.10;2.35;;;;;;;16.25;100.00;100160.14;1747501;80;21077;-67
2022/08/10 04:30:22;;;;;;;;;;;;;;;16.36;100.00;100162.98;1750131;80;20991;-66
2022/08/10 04:32:52;;;;;;;5.17;2.40;;;;;;;16.42;100.00;100159.59;1747727;82;20104;-67
2022/08/10 04:35:19;;;;;;;5.80;2.45;;;;;;;16.37;100.00;100159.66;1725314;82;21059;-66
2022/08/10 04:37:46;;;;;;;5.15;2.00;;;;;;;16.38;100.00;100161.30;1745929;81;21581;-66
2022/08/10 04:40:12;;;;;;;6.17;2.52;;;;;;;16.42;100.00;100170.02;1748650;80;21541;-69
2022/08/10 04:42:38;;;;;;;;;;;;;;;16.44;100.00;100181.52;1759066;80;20998;-68
2022/08/10 04:45:10;;;;;;;5.75;2.42;;;;;;;16.46;100.00;100180.41;1741458;80;20614;-69
2022/08/10 04:47:35;;;;;;;4.45;2.60;;;;;;;16.45;100.00;100178.22;1740125;80;21113;-67
2022/08/10 04:50:01;;;;;;;;;;;;;;;16.59;100.00;100186.53;1709965;82;21042;-69
2022/08/10 04:52:28;;;;;;;5.28;2.83;;;;;;;16.71;100.00;100195.14;1688681;83;20147;-65
2022/08/10 04:54:54;;;;;;;6.00;3.25;;;;;;;16.74;100.00;100196.73;1740931;80;21014;-65
2022/08/10 04:57:20;;;;;;;7.15;3.30;;;;;;;16.77;100.00;100196.67;1749263;80;20990;-68
2022/08/10 04:59:47;;;;;;;5.22;2.85;;;;;;;16.89;100.00;100192.34;1747112;80;21057;-69
2022/08/10 05:02:14;;;;;;;10.35;3.50;;;;;;;17.02;100.00;100170.66;1750850;80;20998;-69
2022/08/10 05:04:41;;;;;;;6.90;3.10;;;;;;;17.06;100.00;100158.75;1738303;80;21038;-67
2022/08/10 05:07:12;;;;;;;4.97;3.30;;;;;;;17.12;100.00;100165.77;1740847;80;21010;-67
2022/08/10 05:09:38;;;;;;;7.08;3.00;;;;;;;17.24;100.00;100162.53;1741369;80;21986;-68
2022/08/10 05:12:06;;;;;;;7.05;2.70;;;;;;;17.40;100.00;100156.95;1748193;80;20998;-66
2022/08/10 05:14:32;;;;;;;5.42;2.17;;;;;;;17.56;100.00;100154.19;1746286;80;21062;-68
2022/08/10 05:16:59;;;;;;;7.87;3.12;;;;;;;17.63;100.00;100160.09;1733307;82;21100;-67
2022/08/10 05:19:25;;;;;;;7.12;2.62;;;;;;;17.58;100.00;100156.62;1743429;81;21065;-65
2022/08/10 05:21:52;;;;;;;5.30;2.42;;;;;;;17.54;100.00;100162.45;1735942;80;20994;-66
2022/08/10 05:24:18;;;;;;;5.45;2.52;;;;;;;17.62;100.00;100170.02;1752209;81;21030;-67
2022/08/10 05:26:44;;;;;;;;;;;;;;;17.83;100.00;100169.84;1756566;80;20994;-65
2022/08/10 05:29:11;;;;;;;6.95;2.20;;;;;;;17.96;100.00;100169.57;1742838;81;20155;-66
2022/08/10 05:31:37;;;;;;;6.75;2.60;;;;;;;17.95;100.00;100174.26;1748663;80;21517;-66
2022/08/10 05:34:03;;;;;;;6.17;2.42;;;;;;;18.01;100.00;100178.52;1713626;82;21128;-66
2022/08/10 05:36:30;;;;;;;;;;;;;;;18.01;100.00;100175.77;1727726;83;20996;-67
2022/08/10 05:38:56;;;;;;;9.10;2.70;;;;;;;17.99;100.00;100180.78;1685125;84;20137;-65
2022/08/10 05:41:23;;;;;;;5.60;2.27;;;;;;;17.98;100.00;100175.02;1673605;83;21000;-66
2022/08/10 05:43:50;;;;;;;6.28;3.00;;;;;;;18.01;100.00;100166.13;1672214;85;21032;-67
2022/08/10 05:46:16;;;;;;;6.85;2.60;;;;;;;18.09;100.00;100159.88;1678931;85;21016;-68
2022/08/10 05:48:42;;;;;;;;;;;;;;;18.31;100.00;100161.29;1686789;84;21036;-66
2022/08/10 05:51:09;;;;;;;6.40;2.63;;;;;;;18.51;100.00;100155.04;1662185;85;20163;-67
2022/08/10 05:53:37;;;;;;;5.67;2.62;;;;;;;18.58;100.00;100152.66;1668353;83;21004;-68
2022/08/10 05:56:05;;;;;;;4.80;2.37;;;;;;;18.58;100.00;100156.23;1667597;85;21070;-67
2022/08/10 05:58:34;;;;;;;3.87;2.50;;;;;;;18.52;100.00;100153.92;1662682;85;21137;-68
2022/08/10 06:01:04;;;;;;;8.68;2.55;;;;;;;18.62;100.00;100156.41;1672587;85;21039;-66
2022/08/10 06:03:37;;;;;;;6.47;2.85;;;;;;;18.61;100.00;100157.53;1678726;85;21009;-66
2022/08/10 06:06:04;;;;;;;8.55;3.37;;;;;;;18.55;100.00;100166.52;1676469;83;21491;-66
2022/08/10 06:08:32;;;;;;;5.90;2.75;;;;;;;18.62;100.00;100165.50;1681707;85;21067;-65
2022/08/10 06:11:01;;;;;;;4.62;2.40;;;;;;;18.80;100.00;100158.97;1676805;85;21043;-68
2022/08/10 06:16:15;;;;;;;6.55;2.20;;;;;;;18.89;100.00;100159.00;1677082;85;21044;-68
2022/08/10 06:18:42;;;;;;;3.90;2.12;;;;;;;18.86;100.00;100158.26;1670154;85;21047;-69
2022/08/10 06:21:08;;;;;;;4.10;2.02;;;;;;;18.87;100.00;100165.41;1679085;83;21026;-67
2022/08/10 06:23:36;;;;;;;4.55;2.05;;;;;;;18.84;100.00;100157.21;1679693;84;21528;-68
2022/08/10 06:26:04;;;;;;;5.05;2.37;;;;;;;18.79;100.00;100157.89;1653620;85;21476;-67
2022/08/10 06:28:34;;;;;;;4.20;2.22;;;;;;;18.79;100.00;100152.37;1673698;85;21595;-68
2022/08/10 06:31:01;;;;;;;4.37;2.20;;;;;;;18.79;100.00;100160.09;1677691;83;21589;-69
2022/08/10 06:33:30;;;;;;;6.05;2.60;;;;;;;18.86;100.00;100163.21;1647640;86;21095;-69
2022/08/10 06:35:57;;;;;;;6.28;2.10;;;;;;;18.88;100.00;100163.70;1668135;85;21134;-68
2022/08/10 06:38:24;;;;;;;5.28;2.15;;;;;;;18.87;100.00;100168.98;1676547;85;21500;-68
2022/08/10 06:40:50;;;;;;;4.12;2.30;;;;;;;18.93;100.00;100184.83;1675329;84;21056;-69
2022/08/10 06:43:18;;;;;;;7.55;2.12;;;;;;;18.94;100.00;100183.70;1700499;83;20996;-67
2022/08/10 06:45:52;;;;;;;5.80;2.45;;;;;;;18.93;100.00;100182.06;1676343;84;21098;-69
2022/08/10 06:48:39;;;;;;;4.50;2.47;;;;;;;18.83;100.00;100176.83;1722543;82;21550;-67
2022/08/10 06:51:06;;;;;;;;;;;;;;;18.74;100.00;100175.97;1749229;80;20990;-66
2022/08/10 06:53:37;;;;;;;;;;;;;;;18.57;100.00;100170.31;1750697;80;20091;-67
2022/08/10 06:56:08;;;;;;;8.58;3.17;;;;;;;18.42;100.00;100165.17;1721324;82;20114;-67
2022/08/10 06:58:38;;;;;;;4.95;2.85;;;;;;;18.42;100.00;100163.23;1731580;82;21019;-67
2022/08/10 07:01:07;;;;;;;4.87;2.87;;;;;;;18.54;100.00;100163.50;1734862;81;20963;-68
2022/08/10 07:03:39;;;;;;;5.40;2.92;;;;;;;18.61;100.00;100159.73;1739215;80;21526;-68
2022/08/10 07:06:07;;;;;;;4.67;2.90;;;;;;;18.60;100.00;100155.92;1770637;80;21324;-68
2022/08/10 07:08:35;;;;;;;4.65;2.67;;;;;;;18.58;100.00;100158.17;1725209;82;21050;-68
2022/08/10 07:11:03;;;;;;;5.65;2.50;;;;;;;18.62;100.00;100160.55;1726214;81;21130;-67
2022/08/10 07:13:29;;;;;;;6.03;2.70;;;;;;;18.69;100.00;100160.92;1726358;82;21502;-68
2022/08/10 07:15:56;;;;;;;6.35;2.60;;;;;;;18.65;100.00;100168.19;1771813;80;21054;-68
2022/08/10 07:18:23;;;;;;;4.05;2.60;;;;;;;18.67;100.00;100175.59;1762953;80;21074;-69
2022/08/10 07:20:49;;;;;;;6.28;2.65;;;;;;;18.70;100.00;100171.64;1747159;82;21501;-67
2022/08/10 07:23:16;;;;;;;3.65;2.25;;;;;;;18.72;100.00;100180.41;1731129;82;21034;-68
2022/08/10 07:26:23;;;;;;;5.95;2.27;;;;;;;18.72;100.00;100185.11;1716048;83;21078;-67
2022/08/10 07:28:50;;;;;;;5.28;2.67;;;;;;;18.77;100.00;100179.47;1727679;82;21019;-66
2022/08/10 07:31:19;;;;;;;6.67;2.60;;;;;;;18.85;100.00;100174.55;1729733;81;21822;-67
2022/08/10 07:33:46;;;;;;;5.17;2.92;;;;;;;18.89;100.00;100163.95;1740568;82;21107;-68
2022/08/10 07:36:13;;;;;;;4.67;2.30;;;;;;;18.87;100.00;100157.14;1734092;82;21037;-68
2022/08/10 07:38:40;;;;;;;3.45;2.62;;;;;;;18.92;100.00;100165.26;1734536;82;21064;-67
2022/08/10 07:41:07;;;;;;;6.62;2.55;;;;;;;18.99;100.00;100155.17;1751950;82;21094;-66
2022/08/10 07:43:36;;;;;;;4.37;2.40;;;;;;;18.97;100.00;100173.41;1747490;81;21113;-66
2022/08/10 07:46:04;;;;;;;6.05;2.37;;;;;;;19.01;100.00;100174.97;1738927;82;21052;-67
2022/08/10 07:48:34;;;;;;;8.05;2.30;;;;;;;19.06;100.00;100176.23;1745210;81;21101;-68
2022/08/10 07:51:01;;;;;;;4.70;2.20;;;;;;;19.13;100.00;100165.55;1725240;83;21022;-68
2022/08/10 07:53:32;;;;;;;3.80;2.20;;;;;;;19.15;100.00;100161.33;1733073;82;21113;-66
2022/08/10 07:56:00;;;;;;;7.10;2.37;;;;;;;19.16;100.00;100153.31;1754061;82;21050;-65
2022/08/10 07:58:30;;;;;;;4.87;1.90;;;;;;;19.19;100.00;100149.91;1700487;83;21020;-68
2022/08/10 08:00:57;;;;;;;4.03;2.20;;;;;;;19.18;100.00;100160.69;1725607;83;21040;-67
2022/08/10 08:03:24;;;;;;;3.72;1.75;;;;;;;19.14;100.00;100176.25;1733120;82;21090;-69
2022/08/10 08:05:51;;;;;;;4.50;2.10;;;;;;;19.14;100.00;100173.48;1755369;82;21568;-68
2022/08/10 08:08:18;;;;;;;5.12;2.12;;;;;;;19.14;100.00;100168.53;1745030;82;21044;-68
2022/08/10 08:10:45;;;;;;;7.17;2.05;;;;;;;19.07;100.00;100159.90;1725527;83;21031;-67
2022/08/10 08:13:12;;;;;;;5.03;2.20;;;;;;;19.00;100.00;100160.36;1727752;82;21041;-66
2022/08/10 08:15:39;;;;;;;3.08;1.90;;;;;;;18.96;100.00;100160.73;1753015;82;21059;-64
2022/08/10 08:18:05;;;;;;;4.28;1.95;;;;;;;19.04;100.00;100172.39;1753426;82;21655;-68
2022/08/10 08:20:32;;;;;;;6.62;2.40;;;;;;;19.11;100.00;100172.75;1755149;82;21054;-66
2022/08/10 08:22:59;;;;;;;5.08;1.98;;;;;;;19.16;100.00;100174.56;1769559;80;21067;-65
2022/08/10 08:25:25;;;;;;;3.80;2.30;;;;;;;19.26;100.00;100173.72;1753593;82;21027;-66
2022/08/10 08:27:52;;;;;;;4.53;2.02;;;;;;;19.38;100.00;100167.01;1752069;81;21078;-66
2022/08/10 08:30:20;;;;;;;6.00;2.58;;;;;;;19.43;100.00;100156.98;1724983;83;21062;-68
2022/08/10 08:35:50;;;;;;;5.95;2.85;;;;;;;19.51;100.00;100161.17;1743714;80;21061;-67
2022/08/10 08:38:17;;;;;;;5.42;3.15;;;;;;;19.58;100.00;100158.75;1725142;82;21108;-66
2022/08/10 08:40:49;;;;;;;6.35;2.60;;;;;;;19.64;100.00;100164.36;1726720;82;21088;-66
2022/08/10 08:43:30;;;;;;;4.78;2.37;;;;;;;19.76;100.00;100163.75;1733904;81;21039;-68
2022/08/10 08:46:37;;;;;;;4.08;2.50;;;;;;;19.79;100.00;100162.53;1755456;81;21037;-68
2022/08/10 08:49:21;;;;;;;7.83;2.65;;;;;;;19.68;100.00;100176.39;1742028;81;21135;-66
2022/08/10 08:52:36;;;;;;;3.72;1.80;;;;;;;19.63;100.00;100182.05;1731180;80;21135;-65
2022/08/10 08:55:46;;;;;;;3.80;2.30;;;;;;;19.70;100.00;100184.34;1747128;80;21038;-68
2022/08/10 08:58:52;;;;;;;3.70;2.30;;;;;;;19.76;100.00;100181.14;1752537;81;21109;-64
2022/08/10 09:01:48;;;;;;;4.20;2.58;;;;;;;19.67;100.00;100176.14;1673409;84;21117;-66
2022/08/10 09:04:57;;;;;;;5.75;2.40;;;;;;;19.75;100.00;100180.88;1739479;81;21053;-66
2022/08/10 09:07:35;;;;;;;6.33;2.27;;;;;;;19.82;100.00;100179.84;1750968;81;21002;-65
2022/08/10 09:10:12;;;;;;;4.83;2.67;;;;;;;19.85;100.00;100164.56;1745295;81;21482;-66
2022/08/10 09:12:55;;;;;;;4.37;2.37;;;;;;;19.83;100.00;100164.90;1723461;81;21205;-67
2022/08/10 09:15:46;;;;;;;4.30;2.45;;;;;;;19.84;100.00;100162.92;1757860;81;21037;-67
2022/08/10 09:18:32;;;;;;;3.47;2.37;;;;;;;19.93;100.00;100167.91;1738221;81;21033;-67
2022/08/10 09:21:20;;;;;;;4.40;2.60;;;;;;;20.00;100.00;100171.00;1683239;85;21132;-66
2022/08/10 09:24:13;;;;;;;5.87;2.95;;;;;;;20.03;100.00;100172.30;1739775;81;21098;-65
2022/08/10 09:26:50;;;;;;;4.37;2.70;;;;;;;19.98;100.00;100175.23;1758156;81;21042;-64
2022/08/10 09:29:26;;;;;;;3.87;2.77;;;;;;;20.00;100.00;100165.48;1757644;81;21433;-64
2022/08/10 09:32:08;;;;;;;3.92;2.67;;;;;;;20.06;100.00;100168.32;1757715;81;21085;-64
2022/08/10 09:35:13;;;;;;;4.55;2.70;;;;;;;20.09;100.00;100171.81;1735719;81;21092;-64
2022/08/10 09:38:00;;;;;;;5.15;2.60;;;;;;;20.15;100.00;100176.06;1727973;83;21017;-66
2022/08/10 09:40:50;;;;;;;4.62;2.70;;;;;;;20.32;100.00;100179.42;1742577;82;21404;-65
2022/08/10 09:43:23;;;;;;;8.83;3.15;;;;;;;20.38;100.00;100168.44;1743124;80;21097;-64
2022/08/10 09:46:14;;;;;;;5.08;2.62;;;;;;;20.40;100.00;100168.12;1722326;82;21042;-63
2022/08/10 09:48:53;;;;;;;7.00;3.08;;;;;;;20.48;100.00;100161.75;1722591;82;21034;-66
2022/08/10 09:51:49;;;;;;;4.95;2.98;;;;;;;20.63;100.00;100160.68;1700489;82;21014;-67
2022/08/10 09:54:37;;;;;;;6.78;3.47;;;;;;;20.60;100.00;100153.04;1730646;80;21003;-67
2022/08/10 09:57:39;;;;;;;8.43;3.98;;;;;;;20.59;100.00;100157.50;1743314;82;21093;-68
2022/08/10 10:00:12;;;;;;;6.42;4.30;;;;;;;20.76;100.00;100158.88;1750533;80;21339;-68
2022/08/10 10:03:01;;;;;;;7.35;4.70;;;;;;;20.87;100.00;100158.75;1718087;82;21525;-69
2022/08/10 10:05:59;;;;;;;5.10;3.70;;;;;;;20.89;100.00;100145.41;1758787;80;21073;-68
2022/08/10 10:08:52;;;;;;;6.03;3.92;;;;;;;20.95;100.00;100141.87;1741620;82;21082;-68
2022/08/10 10:11:24;;;;;;;6.37;3.75;;;;;;;21.05;100.00;100138.17;1752838;82;21026;-67
2022/08/10 10:14:15;;;;;;;4.97;2.92;;;;;;;21.14;100.00;100146.49;1742884;80;21003;-69
2022/08/10 10:17:10;;;;;;;3.72;3.30;;;;;;;21.31;100.00;100140.30;1735928;82;21085;-69
2022/08/10 10:20:03;;;;;;;5.90;3.25;;;;;;;21.56;100.00;100136.34;1751981;82;21034;-68
2022/08/10 10:22:51;;;;;;;5.55;3.27;;;;;;;21.63;100.00;100133.28;1746079;80;20972;-68
2022/08/10 10:26:00;;;;;;;3.67;3.25;;;;;;;21.71;100.00;100125.50;1751501;80;21026;-68
2022/08/10 10:28:55;;;;;;;4.78;3.30;;;;;;;21.79;100.00;100132.92;1752156;82;21985;-69
2022/08/10 10:31:29;;;;;;;4.47;2.90;;;;;;;21.85;100.00;100130.77;1751007;82;21082;-68
2022/08/10 10:34:17;;;;;;;3.77;2.65;;;;;;;21.93;100.00;100124.37;1717936;80;21072;-67
2022/08/10 10:36:44;;;;;;;4.22;3.25;;;;;;;21.91;100.00;100123.91;1725473;82;21436;-67
2022/08/10 10:39:13;;;;;;;3.87;3.00;;;;;;;21.96;100.00;100123.72;1729006;80;21050;-69
2022/08/10 10:41:53;;;;;;;5.83;3.20;;;;;;;22.06;100.00;100121.92;1755971;80;21544;-68
2022/08/10 10:44:50;;;;;;;6.08;3.33;;;;;;;22.10;100.00;100114.55;1736026;82;21066;-68
2022/08/10 10:47:52;;;;;;;6.53;3.58;;;;;;;22.05;100.00;100107.00;1755795;82;21596;-68
2022/08/10 10:50:41;;;;;;;3.87;3.08;;;;;;;22.03;100.00;100113.47;1755628;80;21030;-68
2022/08/10 10:53:30;;;;;;;4.67;3.20;;;;;;;22.04;100.00;100103.41;1758601;81;21058;-68
2022/08/10 10:56:31;;;;;;;5.08;2.92;;;;;;;21.96;100.00;100107.66;1748454;82;21118;-68
2022/08/10 10:59:26;;;;;;;4.75;3.27;;;;;;;21.95;100.00;100106.84;1752380;82;21106;-69
2022/08/10 11:02:26;;;;;;;5.15;3.72;;;;;;;21.95;100.00;100109.61;1752161;81;21026;-68
2022/08/10 11:05:21;;;;;;;5.12;3.70;;;;;;;21.90;100.00;100115.89;1739456;82;21002;-68
2022/08/10 11:07:59;;;;;;;5.60;3.30;;;;;;;21.82;100.00;100115.61;1733422;82;21654;-67
2022/08/10 11:10:36;;;;;;;5.42;3.22;;;;;;;21.78;100.00;100112.48;1733377;82;20995;-71
2022/08/10 11:13:26;;;;;;;5.28;3.30;;;;;;;21.81;100.00;100103.50;1753174;82;21556;-71
2022/08/10 11:16:07;;;;;;;5.72;3.75;;;;;;;21.88;100.00;100102.38;1725499;83;21090;-71
2022/08/10 11:18:59;;;;;;;5.20;3.50;;;;;;;21.91;100.00;100095.38;1736819;80;21058;-67
2022/08/10 11:22:09;;;;;;;5.30;4.00;;;;;;;21.91;100.00;100091.22;1755123;82;21018;-68
2022/08/10 11:25:15;;;;;;;4.33;2.83;;;;;;;21.84;100.00;100090.34;1737627;81;21070;-68
2022/08/10 11:28:14;;;;;;;4.47;2.98;;;;;;;21.83;100.00;100103.39;1725239;82;21121;-69
2022/08/10 11:30:51;;;;;;;4.53;3.00;;;;;;;21.75;100.00;100107.63;1733608;82;21022;-68
2022/08/10 11:33:40;;;;;;;;;;;;;;;21.79;100.00;100106.59;1747685;82;21090;-68
2022/08/10 11:36:22;;;;;;;4.17;3.12;;;;;;;21.92;100.00;100105.32;1773771;80;20122;-69
2022/08/10 11:39:08;;;;;;;6.75;3.37;;;;;;;21.84;100.00;100109.17;1747224;82;21085;-68
2022/08/10 11:41:45;;;;;;;;;;;;;;;21.90;100.00;100102.88;1751378;80;21057;-68
2022/08/10 11:44:31;;;;;;;2.95;2.58;;;;;;;21.98;100.00;100102.58;1750501;80;20100;-69
2022/08/10 11:47:06;;;;;;;4.77;2.90;;;;;;;21.97;100.00;100107.88;1770900;80;21355;-68
2022/08/10 11:49:38;;;;;;;3.65;2.77;;;;;;;21.91;100.00;100100.92;1740383;80;21058;-68
2022/08/10 11:52:35;;;;;;;4.72;2.87;;;;;;;21.83;100.00;100098.41;1741297;82;21049;-69
2022/08/10 11:55:22;;;;;;;3.33;2.80;;;;;;;21.83;100.00;100097.03;1748716;81;20960;-68
2022/08/10 11:57:51;;;;;;;3.98;2.62;;;;;;;21.84;100.00;100102.25;1768458;80;21366;-67
2022/08/10 12:00:18;;;;;;;4.47;2.83;;;;;;;21.71;100.00;100099.75;1753182;82;21061;-68
2022/08/10 12:02:53;;;;;;;4.40;2.77;;;;;;;21.73;100.00;100109.34;1725140;83;21117;-68
2022/08/10 12:05:36;;;;;;;4.12;2.85;;;;;;;21.74;100.00;100112.92;1761825;80;21532;-68
2022/08/10 12:08:03;;;;;;;4.03;3.00;;;;;;;21.88;100.00;100119.02;1756380;80;21140;-69